CWYO2: Chewey Road

Data processed at Sun Aug 20 2017 23:38


All information presented herein is the property of the government of the United States of America and may be revised or deleted at any time without prior notice.
Dissemination of this information without the expressed written consent of the Public Affairs Office, Tulsa District U.S. Army Corps of Engineers is strictly prohibited.
These data are gathered electronically and, as presented, have not undergone any form of quality control. These data are not guaranteed to be valid or correct.
Go to home page.
Go to station list.

Upstream stations:

Downstream station:
Previous Day
Next Day
Current Day
    
SHEF ID:       CWYO2     Illinois River at Chewey, OK
STATION TYPE:  

               PRECIP     STAGE  STAGE(2)  RIV-FLOW  BAT-LOAD
                   in        ft        ft       cfs      volt
              Ccp-Rev   Ccp-Rev   Ccp-Rev   Ccp-Rev   Ccp-Rev
(US/Central)
08/18 00:00      0.00      7.31      7.54      3195     12.71
08/18 01:00      0.00      7.48      7.71      3470     12.65
08/18 02:00      0.00      7.60      7.77      3670     12.65
08/18 03:00      0.00      7.57      7.74      3620     12.65
08/18 04:00      0.00      7.51      7.66      3520     12.65
08/18 05:00      0.00      7.39      7.54      3323     12.60
08/18 06:00      0.00      7.26      7.41      3116     12.60
08/18 07:00      0.00      7.08      7.29      2838     12.60
08/18 08:00      0.00      7.00      7.17      2717     12.60
08/18 09:00      0.00      6.88      7.05      2538     12.65
08/18 10:00      0.00      6.84      6.96      2480     12.89
08/18 11:00      0.00      6.77      6.87      2379     13.00
08/18 12:00      0.00      6.64      6.79      2197     13.07
08/18 13:00      0.00      6.61      6.71      2156     13.18
08/18 14:00      0.00      6.50      6.62      2008     12.95
08/18 15:00      0.07      6.48      6.52      1981     13.00
08/18 16:00      0.01      6.42      6.50      1903     13.30
08/18 17:00      0.00      6.35      6.42      1813     12.95
08/18 18:00      0.00      6.28      6.39      1730     12.89
08/18 19:00      0.00      6.23      6.34      1680     12.83
08/18 20:00      0.00      6.21      6.29      1660     12.77
08/18 21:00      0.00      6.14      6.24      1590     12.77
08/18 22:00      0.00      6.09      6.19      1542     12.77
08/18 23:00      0.00      6.04      6.15      1494     12.71